createdAt,value
2023-11-04T00:01:59.732Z,2.22
2023-11-04T00:05:02.431Z,2.10
2023-11-04T00:08:06.009Z,2.62
2023-11-04T00:11:08.752Z,2.37
2023-11-04T00:14:11.094Z,2.70
2023-11-04T00:17:14.363Z,2.97
2023-11-04T00:20:16.728Z,2.72
2023-11-04T00:23:19.413Z,2.67
2023-11-04T00:26:21.891Z,2.28
2023-11-04T00:29:26.640Z,2.53
2023-11-04T00:32:29.558Z,2.70
2023-11-04T00:35:32.273Z,3.10
2023-11-04T00:38:34.642Z,3.15
2023-11-04T00:41:37.324Z,2.85
2023-11-04T00:44:40.017Z,2.53
2023-11-04T00:47:42.705Z,2.33
2023-11-04T00:50:45.179Z,2.97
2023-11-04T00:53:47.886Z,2.78
2023-11-04T00:56:50.265Z,3.35
2023-11-04T00:59:53.897Z,3.20
2023-11-04T01:02:57.036Z,2.90
2023-11-04T01:05:59.945Z,2.87
2023-11-04T01:09:04.189Z,3.15
2023-11-04T01:12:08.058Z,3.33
2023-11-04T01:15:10.858Z,3.25
2023-11-04T01:18:13.851Z,3.00
2023-11-04T01:21:17.883Z,3.12
2023-11-04T01:24:20.625Z,3.45
2023-11-04T01:27:23.119Z,3.33
2023-11-04T01:30:25.823Z,3.40
2023-11-04T01:33:28.807Z,3.60
2023-11-04T01:36:31.650Z,3.53
2023-11-04T01:39:34.898Z,3.40
2023-11-04T01:42:42.936Z,3.50
2023-11-04T01:45:45.468Z,2.95
2023-11-04T01:48:48.787Z,2.75
2023-11-04T01:51:52.918Z,2.40
2023-11-04T01:54:55.859Z,2.72
2023-11-04T01:58:01.806Z,2.72
2023-11-04T02:01:05.393Z,2.58
2023-11-04T02:04:08.200Z,2.35
2023-11-04T02:07:10.651Z,2.72
2023-11-04T02:10:14.642Z,2.70
2023-11-04T02:13:17.026Z,2.62
2023-11-04T02:16:19.984Z,2.40
2023-11-04T02:19:22.537Z,2.28
2023-11-04T02:22:26.029Z,2.50
2023-11-04T02:25:35.858Z,2.47
2023-11-04T02:28:38.507Z,2.53
2023-11-04T02:31:40.910Z,2.40
2023-11-04T02:34:43.710Z,2.50
2023-11-04T02:37:48.655Z,2.40
2023-11-04T02:40:51.412Z,2.28
2023-11-04T02:43:54.674Z,2.28
2023-11-04T02:47:01.094Z,2.20
2023-11-04T02:50:03.572Z,2.15
2023-11-04T02:53:06.324Z,1.85
2023-11-04T02:56:09.401Z,1.92
2023-11-04T02:59:12.133Z,1.70
2023-11-04T03:02:15.492Z,1.80
2023-11-04T03:05:27.528Z,1.80
2023-11-04T03:08:35.311Z,1.80
2023-11-04T03:11:38.027Z,1.67
2023-11-04T03:14:44.602Z,1.62
2023-11-04T03:17:47.348Z,1.62
2023-11-04T03:20:49.828Z,1.60
2023-11-04T03:23:52.648Z,1.48
2023-11-04T03:26:56.267Z,1.20
2023-11-04T03:29:58.882Z,1.30
2023-11-04T03:33:03.107Z,1.08
2023-11-04T03:39:10.121Z,1.10
2023-11-04T03:42:12.795Z,1.30
2023-11-04T03:45:15.861Z,1.60
2023-11-04T03:48:19.063Z,1.70
2023-11-04T03:51:24.149Z,1.40
2023-11-04T03:54:26.810Z,1.30
2023-11-04T03:57:29.217Z,1.10
2023-11-04T04:00:32.853Z,1.17
2023-11-04T04:03:35.565Z,1.10
2023-11-04T04:06:38.098Z,1.10
2023-11-04T04:09:41.062Z,1.35
2023-11-04T04:12:43.425Z,1.10
2023-11-04T04:15:46.368Z,1.12
2023-11-04T04:18:49.014Z,1.20
2023-11-04T04:21:51.736Z,1.20
2023-11-04T04:24:54.396Z,0.98
2023-11-04T04:27:57.607Z,1.00
2023-11-04T04:31:00.149Z,1.10
2023-11-04T04:34:02.910Z,1.17
2023-11-04T04:37:05.346Z,1.15
2023-11-04T04:40:08.826Z,1.10
2023-11-04T04:43:11.200Z,1.20
2023-11-04T04:46:13.889Z,1.30
2023-11-04T04:49:16.495Z,1.17
2023-11-04T04:52:19.304Z,1.20
2023-11-04T04:55:28.310Z,1.17
2023-11-04T04:58:41.609Z,6.60
2023-11-04T05:02:00.752Z,4.37
2023-11-04T05:05:12.243Z,3.12
2023-11-04T05:08:21.209Z,2.50
2023-11-04T05:11:34.395Z,2.58
2023-11-04T05:14:40.709Z,2.20
2023-11-04T05:17:55.004Z,2.20
2023-11-04T05:21:34.798Z,1.90
2023-11-04T05:24:41.039Z,1.70
2023-11-04T05:27:43.821Z,1.97
2023-11-04T05:30:46.611Z,2.07
2023-11-04T05:33:49.148Z,1.83
2023-11-04T05:36:54.012Z,2.00
2023-11-04T05:39:56.547Z,1.80
2023-11-04T05:42:59.707Z,1.98
2023-11-04T05:46:05.176Z,1.67
2023-11-04T05:49:07.947Z,1.90
2023-11-04T05:52:10.343Z,1.48
2023-11-04T05:55:13.577Z,1.62
2023-11-04T05:58:15.985Z,1.90
2023-11-04T06:01:24.439Z,1.42
2023-11-04T06:04:27.300Z,1.50
2023-11-04T06:07:30.363Z,1.60
2023-11-04T06:10:33.117Z,1.70
2023-11-04T06:13:36.002Z,1.98
2023-11-04T06:16:38.808Z,1.85
2023-11-04T06:19:41.241Z,1.90
2023-11-04T06:22:44.027Z,1.60
2023-11-04T06:25:46.416Z,1.62
2023-11-04T06:28:49.442Z,1.70
2023-11-04T06:31:51.889Z,1.50
2023-11-04T06:34:54.554Z,1.60
2023-11-04T06:37:56.992Z,1.80
2023-11-04T06:41:00.084Z,1.73
2023-11-04T06:44:02.437Z,1.70
2023-11-04T06:47:06.722Z,1.50
2023-11-04T06:50:09.896Z,1.50
2023-11-04T06:53:14.001Z,1.35
2023-11-04T06:56:16.492Z,1.55
2023-11-04T06:59:20.260Z,1.55
2023-11-04T07:02:22.601Z,1.40
2023-11-04T07:05:25.875Z,1.40
2023-11-04T07:08:28.220Z,1.40
2023-11-04T07:11:33.428Z,1.60
2023-11-04T07:14:35.899Z,1.90
2023-11-04T07:17:39.152Z,1.80
2023-11-04T07:20:42.581Z,1.80
2023-11-04T07:23:45.764Z,1.80
2023-11-04T07:26:48.166Z,2.58
2023-11-04T07:29:51.132Z,2.22
2023-11-04T07:32:54.477Z,2.47
2023-11-04T07:35:57.763Z,2.37
2023-11-04T07:39:00.304Z,2.00
2023-11-04T07:42:02.952Z,2.33
2023-11-04T07:45:05.949Z,2.20
2023-11-04T07:48:12.360Z,2.20
2023-11-04T07:51:14.980Z,2.67
2023-11-04T07:54:18.167Z,2.42
2023-11-04T07:57:20.754Z,2.60
2023-11-04T08:00:23.488Z,2.30
2023-11-04T08:03:27.428Z,2.00
2023-11-04T08:06:29.999Z,2.00
2023-11-04T08:09:32.776Z,1.92
2023-11-04T08:12:35.477Z,2.37
2023-11-04T08:15:39.627Z,2.50
2023-11-04T08:21:45.645Z,1.85
2023-11-04T08:24:49.065Z,2.20
2023-11-04T08:27:51.778Z,2.00
2023-11-04T08:30:54.443Z,2.03
2023-11-04T08:33:59.471Z,2.15
2023-11-04T08:37:02.877Z,2.03
2023-11-04T08:40:06.324Z,2.22
2023-11-04T08:43:08.826Z,2.35
2023-11-04T08:46:13.928Z,2.30
2023-11-04T08:49:16.352Z,1.80
2023-11-04T08:52:19.140Z,1.83
2023-11-04T08:55:21.683Z,1.83
2023-11-04T08:58:24.321Z,2.15
2023-11-04T09:01:26.778Z,2.20
2023-11-04T09:04:29.699Z,7.60
2023-11-04T09:07:32.182Z,2.35
2023-11-04T09:10:34.894Z,2.63
2023-11-04T09:13:38.395Z,1.80
2023-11-04T09:16:41.107Z,1.52
2023-11-04T09:19:43.592Z,1.35
2023-11-04T09:22:46.950Z,1.40
2023-11-04T09:25:50.341Z,1.30
2023-11-04T09:28:54.440Z,1.25
2023-11-04T09:31:57.709Z,1.40
2023-11-04T09:35:01.356Z,0.98
2023-11-04T09:38:05.845Z,1.17
2023-11-04T09:41:08.548Z,1.02
2023-11-04T09:44:11.968Z,1.20
2023-11-04T09:47:15.652Z,3.90
2023-11-04T09:50:18.202Z,1.45
2023-11-04T09:53:27.657Z,1.20
2023-11-04T09:56:30.034Z,1.25
2023-11-04T09:59:34.767Z,1.17
2023-11-04T10:02:37.480Z,1.10
2023-11-04T10:05:40.959Z,1.30
2023-11-04T10:08:48.137Z,1.20
2023-11-04T10:11:51.676Z,7.57
2023-11-04T10:14:54.068Z,9.02
2023-11-04T10:17:57.565Z,1.87
2023-11-04T10:21:01.281Z,2.00
2023-11-04T10:24:06.167Z,1.48
2023-11-04T10:27:08.574Z,1.37
2023-11-04T10:30:12.007Z,1.70
2023-11-04T10:33:18.474Z,1.30
2023-11-04T10:36:22.987Z,1.20
2023-11-04T10:39:28.856Z,1.40
2023-11-04T10:42:32.687Z,1.25
2023-11-04T10:48:51.592Z,1.30
2023-11-04T10:52:10.051Z,1.48
2023-11-04T10:55:14.252Z,1.50
2023-11-04T10:58:28.957Z,1.42
2023-11-04T11:01:33.150Z,1.60
2023-11-04T11:04:37.188Z,1.70
2023-11-04T11:07:44.787Z,1.42
2023-11-04T11:10:57.706Z,1.70
2023-11-04T11:14:02.889Z,1.83
2023-11-04T11:17:09.104Z,1.55
2023-11-04T11:20:36.855Z,1.60
2023-11-04T11:23:48.312Z,1.70
2023-11-04T11:27:01.306Z,2.20
2023-11-04T11:30:05.709Z,1.92
2023-11-04T11:33:09.226Z,2.30
2023-11-04T11:36:17.801Z,2.20
2023-11-04T11:39:21.571Z,2.30
2023-11-04T11:42:28.415Z,2.30
2023-11-04T11:45:31.268Z,2.30
2023-11-04T11:48:39.708Z,2.22
2023-11-04T11:51:43.947Z,2.30
2023-11-04T11:57:48.939Z,2.10
2023-11-04T12:00:52.004Z,2.10
2023-11-04T12:06:59.142Z,2.10
2023-11-04T12:10:02.250Z,2.90
2023-11-04T12:13:04.911Z,2.17
2023-11-04T12:16:10.186Z,2.10
2023-11-04T12:19:14.705Z,2.25
2023-11-04T12:22:17.521Z,2.95
2023-11-04T12:25:20.033Z,7.93
2023-11-04T12:28:24.313Z,3.17
2023-11-04T12:31:30.254Z,2.33
2023-11-04T12:34:33.077Z,2.50
2023-11-04T12:37:36.132Z,2.42
2023-11-04T12:40:43.927Z,2.30
2023-11-04T12:43:46.916Z,2.60
2023-11-04T12:46:51.406Z,2.55
2023-11-04T12:49:54.222Z,2.40
2023-11-04T12:53:02.296Z,2.60
2023-11-04T12:56:05.311Z,2.53
2023-11-04T12:59:08.390Z,2.12
2023-11-04T13:02:11.079Z,2.50
2023-11-04T13:05:14.074Z,2.12
2023-11-04T13:08:16.640Z,2.40
2023-11-04T13:11:19.339Z,2.40
2023-11-04T13:14:21.746Z,2.25
2023-11-04T13:17:25.472Z,2.17
2023-11-04T13:20:28.010Z,2.03
2023-11-04T13:23:30.754Z,1.52
2023-11-04T13:26:33.141Z,1.90
2023-11-04T13:29:35.873Z,2.03
2023-11-04T13:32:38.647Z,1.70
2023-11-04T13:35:41.760Z,1.73
2023-11-04T13:38:44.610Z,1.40
2023-11-04T13:41:47.332Z,1.85
2023-11-04T13:44:49.793Z,1.37
2023-11-04T13:47:52.686Z,1.98
2023-11-04T13:50:55.105Z,1.40
2023-11-04T13:53:57.788Z,1.20
2023-11-04T13:57:00.130Z,1.10
2023-11-04T14:00:02.861Z,1.10
2023-11-04T14:03:07.166Z,1.10
2023-11-04T14:06:10.077Z,1.40
2023-11-04T14:09:12.600Z,1.20
2023-11-04T14:12:15.249Z,1.20
2023-11-04T14:15:20.341Z,1.80
2023-11-04T14:18:23.190Z,1.10
2023-11-04T14:21:25.728Z,1.08
2023-11-04T14:24:28.348Z,1.20
2023-11-04T14:27:31.563Z,1.50
2023-11-04T14:30:34.330Z,1.30
2023-11-04T14:33:36.790Z,1.60
2023-11-04T14:36:41.600Z,1.40
2023-11-04T14:39:44.462Z,1.60
2023-11-04T14:42:48.041Z,1.80
2023-11-04T14:45:50.512Z,1.52
2023-11-04T14:48:53.964Z,1.40
2023-11-04T14:51:56.404Z,1.92
2023-11-04T14:54:59.672Z,1.55
2023-11-04T14:58:02.212Z,1.50
2023-11-04T15:01:05.095Z,2.05
2023-11-04T15:04:08.011Z,1.70
2023-11-04T15:07:11.939Z,1.85
2023-11-04T15:10:14.337Z,1.70
2023-11-04T15:13:17.051Z,1.65
2023-11-04T15:16:19.509Z,1.90
2023-11-04T15:19:22.275Z,2.03
2023-11-04T15:22:30.943Z,1.85
2023-11-04T15:25:33.628Z,2.00
2023-11-04T15:28:36.143Z,1.77
2023-11-04T15:31:39.443Z,2.00
2023-11-04T15:34:45.831Z,2.10
2023-11-04T15:37:48.507Z,2.40
2023-11-04T15:40:50.877Z,2.50
2023-11-04T15:43:53.501Z,2.87
2023-11-04T15:46:56.219Z,2.80
2023-11-04T15:50:01.583Z,3.40
2023-11-04T15:53:04.108Z,3.10
2023-11-04T15:56:07.426Z,3.35
2023-11-04T15:59:10.169Z,3.40
2023-11-04T16:02:12.898Z,3.20
2023-11-04T16:05:15.994Z,3.15
2023-11-04T16:08:18.534Z,3.20
2023-11-04T16:11:21.632Z,3.00
2023-11-04T16:14:24.012Z,3.55
2023-11-04T16:17:27.011Z,3.30
2023-11-04T16:20:29.514Z,3.97
2023-11-04T16:23:32.824Z,4.03
2023-11-04T16:26:35.610Z,3.40
2023-11-04T16:29:38.473Z,3.87
2023-11-04T16:32:41.232Z,4.30
2023-11-04T16:35:44.128Z,3.50
2023-11-04T16:38:46.922Z,4.40
2023-11-04T16:41:49.602Z,4.12
2023-11-04T16:44:52.032Z,3.90
2023-11-04T16:47:54.882Z,3.90
2023-11-04T16:50:57.701Z,4.45
2023-11-04T16:54:01.113Z,4.13
2023-11-04T16:57:06.009Z,4.30
2023-11-04T17:00:10.941Z,4.37
2023-11-04T17:03:13.506Z,5.37
2023-11-04T17:06:16.290Z,6.10
2023-11-04T17:09:19.984Z,6.07
